Time;durP1;ratioP1;P1;durP2;ratioP2;P2;SDS_P1;SDS_P2;PMS_P1;PMS_P2;Temp;Humidity;BMP_temperature;BMP_pressure;BME280_temperature;BME280_humidity;BME280_pressure;Samples;Min_cycle;Max_cycle;Signal;HPM_P1;HPM_P2
2021/04/27 00:02:00;;;;;;;12.00;5.37;;;9.50;92.40;;;;;;4974667;28;20189;-76
2021/04/27 00:04:25;;;;;;;11.53;5.30;;;9.50;92.90;;;;;;4988872;28;20209;-76
2021/04/27 00:06:51;;;;;;;18.57;5.43;;;9.50;92.80;;;;;;4973761;28;20198;-76
2021/04/27 00:09:17;;;;;;;12.40;5.37;;;9.40;93.30;;;;;;4973336;28;20198;-76
2021/04/27 00:11:42;;;;;;;12.73;5.50;;;9.40;93.40;;;;;;4973180;28;20205;-76
2021/04/27 00:14:08;;;;;;;18.47;5.50;;;9.50;93.50;;;;;;5006067;28;20290;-76
2021/04/27 00:16:35;;;;;;;14.87;5.40;;;9.60;93.30;;;;;;4973440;28;20582;-76
2021/04/27 00:19:01;;;;;;;13.70;5.70;;;9.70;93.60;;;;;;4973522;28;20179;-76
2021/04/27 00:21:27;;;;;;;17.53;5.40;;;9.70;93.70;;;;;;5005670;28;20183;-76
2021/04/27 00:23:53;;;;;;;14.57;5.13;;;9.80;93.40;;;;;;4974500;28;20684;-76
2021/04/27 00:26:18;;;;;;;13.73;5.53;;;9.80;93.40;;;;;;4972982;28;20214;-76
2021/04/27 00:28:44;;;;;;;15.50;5.40;;;9.70;94.00;;;;;;4989743;28;20214;-76
2021/04/27 00:31:10;;;;;;;12.83;5.07;;;9.70;93.90;;;;;;4989434;28;20600;-76
2021/04/27 00:33:36;;;;;;;13.37;5.17;;;9.60;93.90;;;;;;5004150;28;20554;-76
2021/04/27 00:36:02;;;;;;;12.47;5.23;;;9.60;94.00;;;;;;5005039;28;20223;-76
2021/04/27 00:38:28;;;;;;;15.27;5.20;;;9.50;94.20;;;;;;4973975;28;20668;-76
2021/04/27 00:40:53;;;;;;;13.10;5.30;;;9.60;94.10;;;;;;4987843;28;20210;-76
2021/04/27 00:43:19;;;;;;;13.00;5.27;;;9.60;94.00;;;;;;4980077;28;20246;-76
2021/04/27 00:45:44;;;;;;;13.97;4.83;;;9.50;94.10;;;;;;4973304;28;20205;-76
2021/04/27 00:48:10;;;;;;;13.77;5.30;;;9.40;94.20;;;;;;5005028;28;20609;-76
2021/04/27 00:50:38;;;;;;;11.87;4.97;;;9.50;94.00;;;;;;4974129;28;20647;-75
2021/04/27 00:53:05;;;;;;;12.50;5.10;;;9.40;94.20;;;;;;4985184;28;20197;-76
2021/04/27 00:55:31;;;;;;;16.33;5.87;;;9.20;94.60;;;;;;4973891;28;20310;-76
2021/04/27 00:58:01;;;;;;;9.17;4.40;;;9.20;95.10;;;;;;4971379;28;20196;-76
2021/04/27 01:00:31;;;;;;;11.73;5.17;;;9.20;94.70;;;;;;4971664;28;20252;-76
2021/04/27 01:02:57;;;;;;;10.17;4.70;;;9.20;95.00;;;;;;4972363;28;20190;-76
2021/04/27 01:05:25;;;;;;;23.33;5.47;;;9.10;94.90;;;;;;4987795;28;20192;-76
2021/04/27 01:08:29;;;;;;;12.80;4.70;;;9.00;95.50;;;;;;4988577;28;20257;-76
2021/04/27 01:11:10;;;;;;;15.57;5.13;;;9.00;95.70;;;;;;5013399;28;20290;-76
2021/04/27 01:13:47;;;;;;;12.50;5.10;;;9.00;95.90;;;;;;5006057;28;20182;-76
2021/04/27 01:16:14;;;;;;;13.17;4.60;;;9.00;95.80;;;;;;5012222;28;20565;-76
2021/04/27 01:18:43;;;;;;;11.33;4.73;;;9.00;96.00;;;;;;5029580;28;20199;-76
2021/04/27 01:21:12;;;;;;;16.37;5.30;;;9.00;95.90;;;;;;5010525;28;20292;-77
2021/04/27 01:24:15;;;;;;;12.17;5.03;;;9.00;96.10;;;;;;5010698;28;20198;-76
2021/04/27 01:26:47;;;;;;;10.67;4.77;;;8.90;96.60;;;;;;4987922;28;20229;-76
2021/04/27 01:29:16;;;;;;;12.80;5.03;;;8.70;97.00;;;;;;5028263;28;20210;-76
2021/04/27 01:31:42;;;;;;;13.67;4.80;;;8.70;97.20;;;;;;5026748;28;20205;-76
2021/04/27 01:34:12;;;;;;;10.63;4.90;;;8.70;97.40;;;;;;5011974;28;20195;-76
2021/04/27 01:36:38;;;;;;;13.20;4.87;;;8.80;97.30;;;;;;5010240;28;20305;-76
2021/04/27 01:39:06;;;;;;;11.70;5.17;;;8.80;97.30;;;;;;4995950;28;20282;-76
2021/04/27 01:41:33;;;;;;;11.43;5.20;;;8.80;97.30;;;;;;5003641;28;20249;-76
2021/04/27 01:43:59;;;;;;;13.73;5.43;;;8.80;97.30;;;;;;4986517;28;20288;-76
2021/04/27 01:46:27;;;;;;;11.60;5.27;;;8.70;97.80;;;;;;5002688;28;20736;-76
2021/04/27 01:48:54;;;;;;;12.03;5.37;;;8.70;98.00;;;;;;5003487;28;20194;-76
2021/04/27 01:51:21;;;;;;;14.43;5.03;;;8.60;98.20;;;;;;4999031;28;21185;-77
2021/04/27 01:54:05;;;;;;;14.83;5.33;;;8.60;98.70;;;;;;4970483;28;20195;-76
2021/04/27 01:56:31;;;;;;;10.87;5.20;;;8.60;98.70;;;;;;4971484;28;20213;-76
2021/04/27 01:58:57;;;;;;;11.83;5.17;;;8.40;99.30;;;;;;4971455;28;20193;-76
2021/04/27 02:01:32;;;;;;;10.67;5.10;;;8.40;99.90;;;;;;4986923;28;20194;-77
2021/04/27 02:03:58;;;;;;;15.43;5.43;;;8.40;99.80;;;;;;4970792;28;20201;-77
2021/04/27 02:06:59;;;;;;;14.63;6.13;;;8.20;99.90;;;;;;4988822;28;20206;-77
2021/04/27 02:09:28;;;;;;;12.33;5.00;;;8.10;99.90;;;;;;4981270;28;20295;-77
2021/04/27 02:12:08;;;;;;;15.03;5.10;;;8.20;99.90;;;;;;5005569;28;20274;-77
2021/04/27 02:14:36;;;;;;;13.20;5.50;;;8.10;99.90;;;;;;5002787;28;20208;-77
2021/04/27 02:17:19;;;;;;;12.63;6.07;;;8.10;99.90;;;;;;4971516;28;20271;-77
2021/04/27 02:19:48;;;;;;;16.07;5.90;;;8.10;99.90;;;;;;5004355;28;20742;-77
2021/04/27 02:22:32;;;;;;;12.63;5.60;;;8.00;99.90;;;;;;4970898;28;20203;-77
2021/04/27 02:25:31;;;;;;;13.73;5.43;;;7.90;99.90;;;;;;4973945;28;20282;-77
2021/04/27 02:27:57;;;;;;;15.50;5.80;;;7.90;99.90;;;;;;4985688;28;20266;-77
2021/04/27 02:30:25;;;;;;;14.53;5.93;;;7.80;99.90;;;;;;4986107;28;20559;-77
2021/04/27 02:32:52;;;;;;;12.60;5.50;;;7.70;99.90;;;;;;4970766;28;20191;-77
2021/04/27 02:35:19;;;;;;;14.23;6.03;;;7.60;99.90;;;;;;5002339;28;20228;-77
2021/04/27 02:37:49;;;;;;;13.17;5.83;;;7.60;99.90;;;;;;4982619;28;20678;-77
2021/04/27 02:40:30;;;;;;;14.13;5.80;;;7.60;99.90;;;;;;4986615;28;20690;-77
2021/04/27 02:42:58;;;;;;;10.87;5.57;;;7.70;99.90;;;;;;5002869;28;20211;-77
2021/04/27 02:45:31;;;;;;;14.60;5.90;;;7.80;99.90;;;;;;4985749;28;20191;-76
2021/04/27 02:48:24;;;;;;;15.70;5.30;;;7.90;99.90;;;;;;4979216;28;20216;-77
2021/04/27 02:50:59;;;;;;;13.47;5.80;;;7.90;99.90;;;;;;4999952;28;20194;-77
2021/04/27 02:53:29;;;;;;;16.50;5.90;;;7.80;99.90;;;;;;5002982;28;20540;-77
2021/04/27 02:55:55;;;;;;;11.97;5.70;;;7.80;99.90;;;;;;5000740;28;20626;-76
2021/04/27 02:58:22;;;;;;;14.00;6.03;;;7.90;99.90;;;;;;4971183;28;20197;-77
2021/04/27 03:00:56;;;;;;;13.27;6.20;;;7.80;99.90;;;;;;5001242;28;20191;-76
2021/04/27 03:03:22;;;;;;;15.53;6.10;;;7.60;99.90;;;;;;4970651;28;20177;-77
2021/04/27 03:05:48;;;;;;;14.00;6.00;;;7.60;99.90;;;;;;5002786;28;20705;-77
2021/04/27 03:08:14;;;;;;;13.33;5.47;;;7.70;99.90;;;;;;5001821;28;20221;-77
2021/04/27 03:10:40;;;;;;;13.20;6.20;;;7.80;99.90;;;;;;4971607;28;20201;-77
2021/04/27 03:13:06;;;;;;;13.30;6.27;;;7.80;99.90;;;;;;4971594;28;20188;-77
2021/04/27 03:15:46;;;;;;;16.33;6.23;;;7.90;99.90;;;;;;5003905;28;20753;-77
2021/04/27 03:18:12;;;;;;;13.40;5.47;;;7.80;99.90;;;;;;4970373;28;20200;-77
2021/04/27 03:20:42;;;;;;;13.10;5.93;;;7.80;99.90;;;;;;4973628;28;20279;-77
2021/04/27 03:23:22;;;;;;;15.63;5.77;;;7.90;99.90;;;;;;4986806;28;20181;-77
2021/04/27 03:25:48;;;;;;;13.37;6.13;;;8.00;99.90;;;;;;4969745;28;20594;-77
2021/04/27 03:28:15;;;;;;;14.80;6.33;;;7.80;99.90;;;;;;4986494;28;20208;-77
2021/04/27 03:31:00;;;;;;;14.97;6.03;;;7.80;99.90;;;;;;4971724;28;20200;-77
2021/04/27 03:33:27;;;;;;;12.13;6.53;;;7.70;99.90;;;;;;4970770;28;20211;-77
2021/04/27 03:35:54;;;;;;;14.97;5.80;;;7.70;99.90;;;;;;4985873;28;20223;-77
2021/04/27 03:38:21;;;;;;;13.07;6.23;;;7.70;99.90;;;;;;4988990;28;20350;-77
2021/04/27 03:40:47;;;;;;;16.67;5.77;;;7.80;99.90;;;;;;5006809;28;20214;-77
2021/04/27 03:43:17;;;;;;;13.30;6.03;;;7.80;99.90;;;;;;4973538;28;20184;-77
2021/04/27 03:45:44;;;;;;;18.10;6.70;;;7.90;99.90;;;;;;4975962;28;20183;-77
2021/04/27 03:48:14;;;;;;;15.33;6.20;;;7.90;99.90;;;;;;4978677;28;20185;-77
2021/04/27 03:50:48;;;;;;;13.93;6.50;;;8.00;99.90;;;;;;5004962;28;20243;-77
2021/04/27 03:53:40;;;;;;;15.60;5.97;;;8.10;99.90;;;;;;4968334;28;20293;-78
2021/04/27 03:56:11;;;;;;;11.77;6.30;;;8.00;99.90;;;;;;5005585;28;20207;-77
2021/04/27 03:58:39;;;;;;;12.57;6.47;;;7.90;99.90;;;;;;4989161;28;20188;-77
2021/04/27 04:01:05;;;;;;;16.30;6.20;;;7.90;99.90;;;;;;4973464;28;20213;-77
2021/04/27 04:03:31;;;;;;;16.60;6.23;;;7.90;99.90;;;;;;4975197;28;20227;-77
2021/04/27 04:05:57;;;;;;;15.03;6.50;;;7.90;99.90;;;;;;5005260;28;20270;-77
2021/04/27 04:08:41;;;;;;;14.77;6.07;;;7.80;99.90;;;;;;5001223;28;20279;-77
2021/04/27 04:11:07;;;;;;;12.60;6.50;;;7.80;99.90;;;;;;4995810;28;20193;-78
2021/04/27 04:13:33;;;;;;;15.50;7.00;;;7.90;99.90;;;;;;4971613;28;20238;-78
2021/04/27 04:15:59;;;;;;;13.87;6.87;;;7.90;99.90;;;;;;4988134;28;20215;-78
2021/04/27 04:18:25;;;;;;;14.10;6.67;;;7.90;99.90;;;;;;5003086;28;20682;-77
2021/04/27 04:20:52;;;;;;;17.67;6.97;;;7.90;99.90;;;;;;4973400;28;20201;-77
2021/04/27 04:23:37;;;;;;;14.17;7.10;;;7.90;99.90;;;;;;4990933;28;20246;-77
2021/04/27 04:26:03;;;;;;;14.13;6.87;;;7.80;99.90;;;;;;4973201;28;20185;-77
2021/04/27 04:28:31;;;;;;;12.13;6.70;;;7.80;99.90;;;;;;5005278;28;20192;-77
2021/04/27 04:30:56;;;;;;;15.50;6.77;;;7.80;99.90;;;;;;4990283;28;20251;-77
2021/04/27 04:33:40;;;;;;;18.13;7.13;;;7.80;99.90;;;;;;4973929;28;20228;-76
2021/04/27 04:36:25;;;;;;;15.90;6.47;;;7.70;99.90;;;;;;4969586;28;20239;-77
2021/04/27 04:39:09;;;;;;;15.70;7.17;;;7.80;99.90;;;;;;4972773;28;20228;-76
2021/04/27 04:41:54;;;;;;;14.87;7.17;;;7.90;99.90;;;;;;4971135;28;20252;-76
2021/04/27 04:44:45;;;;;;;15.00;6.57;;;8.00;99.90;;;;;;4980155;28;20248;-76
2021/04/27 04:47:30;;;;;;;14.77;7.30;;;8.20;99.90;;;;;;4971193;28;20251;-76
2021/04/27 04:50:16;;;;;;;15.10;7.37;;;8.50;99.90;;;;;;4962058;28;20192;-76
2021/04/27 04:53:00;;;;;;;16.30;7.47;;;8.60;99.90;;;;;;4971973;28;20243;-76
2021/04/27 04:55:40;;;;;;;19.20;7.90;;;9.00;99.90;;;;;;5004381;28;20207;-75
2021/04/27 04:58:22;;;;;;;15.00;6.80;;;9.60;99.90;;;;;;4970374;28;20197;-75
2021/04/27 05:00:55;;;;;;;16.30;7.00;;;10.70;99.90;;;;;;4972933;28;20717;-76
2021/04/27 05:03:40;;;;;;;14.57;7.07;;;11.80;99.90;;;;;;4969374;28;20217;-76
2021/04/27 05:06:39;;;;;;;17.67;6.83;;;12.80;99.90;;;;;;4977240;28;20187;-76
2021/04/27 05:09:23;;;;;;;16.17;6.40;;;13.50;99.90;;;;;;4972956;28;20203;-76
2021/04/27 05:11:57;;;;;;;15.43;6.50;;;14.10;98.60;;;;;;5004650;28;20273;-77
2021/04/27 05:14:37;;;;;;;14.93;6.67;;;14.40;97.00;;;;;;4974068;28;20227;-76
2021/04/27 05:17:06;;;;;;;18.40;7.30;;;14.70;95.90;;;;;;4972206;28;20290;-77
2021/04/27 05:19:32;;;;;;;14.07;7.27;;;15.30;93.80;;;;;;4973024;28;20187;-77
2021/04/27 05:21:59;;;;;;;13.77;6.70;;;15.80;91.90;;;;;;4971858;28;20264;-76
2021/04/27 05:24:27;;;;;;;15.47;6.77;;;16.30;90.70;;;;;;4987632;28;20653;-76
2021/04/27 05:26:56;;;;;;;16.90;6.77;;;16.90;88.10;;;;;;5003723;28;20193;-76
2021/04/27 05:29:22;;;;;;;16.47;6.90;;;17.60;84.90;;;;;;5001896;28;20196;-77
2021/04/27 05:31:49;;;;;;;17.80;6.87;;;18.20;80.90;;;;;;4972781;28;20201;-77
2021/04/27 05:34:15;;;;;;;16.60;6.80;;;18.70;78.10;;;;;;4999328;28;20265;-76
2021/04/27 05:36:42;;;;;;;15.53;6.60;;;19.10;74.60;;;;;;4971076;28;20742;-77
2021/04/27 05:39:07;;;;;;;13.37;6.40;;;19.80;71.60;;;;;;4972583;28;20190;-77
2021/04/27 05:41:33;;;;;;;14.77;6.30;;;20.60;69.20;;;;;;4969627;28;20179;-77
2021/04/27 05:43:59;;;;;;;16.17;6.63;;;21.20;65.10;;;;;;5002503;28;20179;-77
2021/04/27 05:46:25;;;;;;;13.90;6.73;;;21.80;62.10;;;;;;4969988;28;20206;-76
2021/04/27 05:48:50;;;;;;;12.50;7.10;;;21.60;61.30;;;;;;5003299;28;20190;-77
2021/04/27 05:51:16;;;;;;;13.40;6.83;;;22.00;60.60;;;;;;4971697;28;20209;-76
2021/04/27 05:53:41;;;;;;;16.43;6.80;;;22.30;58.90;;;;;;4971048;28;20196;-77
2021/04/27 05:56:07;;;;;;;14.73;6.87;;;22.40;58.10;;;;;;4974196;28;20578;-77
2021/04/27 05:58:33;;;;;;;14.37;7.53;;;21.80;58.30;;;;;;4969308;28;20194;-75
2021/04/27 06:00:59;;;;;;;13.87;7.60;;;21.80;58.40;;;;;;4969756;28;20183;-76
2021/04/27 06:03:24;;;;;;;11.20;7.03;;;21.60;58.20;;;;;;4970203;28;20666;-77
2021/04/27 06:05:50;;;;;;;16.40;7.07;;;21.40;57.60;;;;;;4971923;28;20182;-77
2021/04/27 06:08:16;;;;;;;16.50;7.40;;;20.60;58.90;;;;;;5000962;28;20200;-77
2021/04/27 06:10:42;;;;;;;13.80;7.17;;;19.50;59.80;;;;;;4971672;28;20195;-78
2021/04/27 06:13:07;;;;;;;13.13;7.20;;;18.70;61.80;;;;;;4971116;28;20234;-76
2021/04/27 06:15:33;;;;;;;12.97;6.80;;;17.70;64.80;;;;;;5002507;28;20210;-76
2021/04/27 06:17:58;;;;;;;12.70;7.33;;;17.20;66.50;;;;;;4970074;28;20229;-77
2021/04/27 06:20:24;;;;;;;13.27;6.97;;;16.80;68.30;;;;;;4970617;28;20198;-77
2021/04/27 06:22:50;;;;;;;17.07;7.83;;;16.50;68.60;;;;;;4971633;28;20212;-78
2021/04/27 06:25:16;;;;;;;14.63;7.03;;;16.40;69.50;;;;;;4999230;28;20290;-76
2021/04/27 06:27:41;;;;;;;11.87;6.80;;;15.90;72.20;;;;;;4971094;28;20281;-76
2021/04/27 06:30:11;;;;;;;15.97;7.57;;;15.90;71.70;;;;;;4970262;28;20245;-76
2021/04/27 06:32:37;;;;;;;13.77;7.00;;;16.10;72.80;;;;;;5002397;28;20256;-76
2021/04/27 06:35:04;;;;;;;15.57;6.87;;;16.00;72.20;;;;;;4970549;28;20602;-76
2021/04/27 06:37:30;;;;;;;14.23;7.13;;;15.90;73.50;;;;;;4969085;28;20210;-77
2021/04/27 06:39:56;;;;;;;13.60;6.73;;;16.20;72.90;;;;;;4972455;28;20607;-76
2021/04/27 06:42:21;;;;;;;11.17;7.37;;;16.40;71.70;;;;;;4970437;28;20194;-76
2021/04/27 06:44:47;;;;;;;14.57;7.23;;;16.20;71.60;;;;;;4970220;28;20191;-76
2021/04/27 06:47:13;;;;;;;17.57;7.20;;;16.20;73.30;;;;;;5002055;28;20225;-76
2021/04/27 06:49:40;;;;;;;12.43;6.70;;;16.30;72.60;;;;;;4970854;28;20198;-76
2021/04/27 06:52:06;;;;;;;14.97;7.33;;;16.70;71.80;;;;;;4969744;28;20201;-76
2021/04/27 06:54:33;;;;;;;12.73;7.00;;;17.70;71.50;;;;;;4969725;28;20193;-76
2021/04/27 06:56:59;;;;;;;13.13;6.40;;;19.00;67.10;;;;;;4970679;28;20214;-77
2021/04/27 06:59:30;;;;;;;14.63;7.20;;;19.40;66.00;;;;;;4967432;28;20270;-76
2021/04/27 07:01:58;;;;;;;17.37;7.00;;;20.60;62.80;;;;;;4969879;28;20273;-76
2021/04/27 07:04:23;;;;;;;13.73;7.20;;;21.50;60.90;;;;;;4971281;28;20663;-76
2021/04/27 07:06:49;;;;;;;13.60;7.00;;;22.00;58.60;;;;;;4969917;28;20205;-78
2021/04/27 07:09:15;;;;;;;15.00;6.57;;;23.80;57.10;;;;;;4970766;28;20191;-76
2021/04/27 07:11:40;;;;;;;13.03;6.40;;;25.00;53.30;;;;;;4971123;28;20665;-76
2021/04/27 07:14:06;;;;;;;11.30;7.03;;;25.20;52.70;;;;;;5005061;28;20211;-76
2021/04/27 07:16:31;;;;;;;13.90;7.00;;;26.00;50.20;;;;;;5006185;28;20200;-76
2021/04/27 07:18:57;;;;;;;14.13;6.40;;;25.20;51.10;;;;;;4973737;28;20199;-76
2021/04/27 07:21:23;;;;;;;10.73;6.57;;;24.50;52.20;;;;;;4974729;28;20183;-76
2021/04/27 07:23:49;;;;;;;13.93;6.57;;;24.10;52.50;;;;;;4974440;28;20715;-76
2021/04/27 07:26:15;;;;;;;14.03;7.40;;;24.70;51.20;;;;;;5004949;28;20183;-76
2021/04/27 07:28:41;;;;;;;14.07;6.33;;;25.40;50.50;;;;;;4974914;28;20187;-77
2021/04/27 07:31:07;;;;;;;14.13;6.67;;;25.80;49.60;;;;;;4974183;28;20195;-76
2021/04/27 07:33:33;;;;;;;13.40;6.68;;;25.60;49.00;;;;;;4990660;28;20195;-76
2021/04/27 07:35:58;;;;;;;12.40;6.57;;;26.10;49.40;;;;;;4987737;28;20259;-76
2021/04/27 07:38:24;;;;;;;10.75;6.35;;;27.80;47.70;;;;;;4973551;28;20183;-76
2021/04/27 07:40:50;;;;;;;11.32;6.75;;;27.50;46.80;;;;;;4974522;28;20194;-76
2021/04/27 07:43:16;;;;;;;14.07;7.38;;;26.20;47.30;;;;;;4972694;28;20191;-75
2021/04/27 07:45:42;;;;;;;15.40;6.85;;;27.30;46.90;;;;;;4974545;28;20194;-76
2021/04/27 07:48:09;;;;;;;13.30;6.88;;;28.90;44.10;;;;;;4975940;28;20198;-77
2021/04/27 07:50:35;;;;;;;13.35;6.63;;;29.70;43.10;;;;;;4975109;28;20193;-77
2021/04/27 07:53:03;;;;;;;16.88;6.45;;;28.90;43.30;;;;;;4990420;28;20187;-77
2021/04/27 07:55:28;;;;;;;14.40;7.00;;;29.50;42.50;;;;;;4974500;28;20217;-77
2021/04/27 07:57:54;;;;;;;11.93;6.75;;;29.30;42.90;;;;;;5003306;28;20218;-77
2021/04/27 08:00:21;;;;;;;14.57;6.85;;;29.80;41.40;;;;;;5005242;28;20186;-77
2021/04/27 08:02:49;;;;;;;13.38;7.03;;;29.70;42.30;;;;;;4974055;28;20181;-77
2021/04/27 08:05:15;;;;;;;16.73;6.57;;;29.40;41.40;;;;;;4972608;28;20187;-75
2021/04/27 08:07:40;;;;;;;13.20;6.53;;;30.00;41.90;;;;;;5004537;28;20194;-75
2021/04/27 08:10:08;;;;;;;12.50;6.80;;;29.50;41.20;;;;;;4989622;28;20195;-76
2021/04/27 08:12:34;;;;;;;12.27;7.10;;;29.40;40.10;;;;;;5004469;28;20238;-76
2021/04/27 08:14:59;;;;;;;10.70;6.60;;;29.30;40.80;;;;;;5005396;28;20680;-76
2021/04/27 08:17:25;;;;;;;13.95;7.30;;;29.60;40.50;;;;;;5003558;28;20207;-76
2021/04/27 08:19:51;;;;;;;11.02;6.68;;;29.10;40.30;;;;;;4973994;28;20180;-76
2021/04/27 08:22:17;;;;;;;13.40;6.60;;;28.20;41.40;;;;;;4971237;28;20191;-76
2021/04/27 08:24:46;;;;;;;12.60;7.13;;;28.20;41.80;;;;;;4972949;28;20183;-75
2021/04/27 08:27:13;;;;;;;15.77;7.15;;;27.70;41.50;;;;;;5002887;28;20260;-76
2021/04/27 08:29:39;;;;;;;12.50;7.32;;;27.50;42.20;;;;;;4986831;28;20286;-75
2021/04/27 08:32:05;;;;;;;13.15;7.10;;;27.70;42.50;;;;;;4989299;28;20274;-76
2021/04/27 08:34:31;;;;;;;13.52;7.32;;;28.90;41.20;;;;;;5002209;28;20374;-75
2021/04/27 08:36:57;;;;;;;16.77;7.30;;;30.20;40.30;;;;;;4973071;28;20207;-75
2021/04/27 08:39:23;;;;;;;16.52;7.50;;;29.80;39.10;;;;;;4971994;28;20261;-75
2021/04/27 08:41:50;;;;;;;11.32;7.70;;;29.50;38.60;;;;;;4971181;28;20644;-76
2021/04/27 08:44:15;;;;;;;17.02;7.57;;;29.30;39.10;;;;;;4971917;28;20207;-75
2021/04/27 08:46:41;;;;;;;13.80;7.53;;;29.30;39.50;;;;;;5003294;28;20626;-76
2021/04/27 08:49:07;;;;;;;15.52;7.95;;;30.60;37.90;;;;;;4974751;28;20194;-76
2021/04/27 08:51:33;;;;;;;15.85;7.72;;;29.70;38.00;;;;;;4980083;28;20233;-76
2021/04/27 08:53:58;;;;;;;17.38;8.50;;;29.70;38.20;;;;;;4981196;28;20207;-75
2021/04/27 08:56:25;;;;;;;15.05;7.80;;;29.00;38.30;;;;;;4976124;28;20218;-76
2021/04/27 08:58:52;;;;;;;15.07;8.15;;;28.10;39.90;;;;;;5002119;28;20197;-76
2021/04/27 09:01:18;;;;;;;16.48;8.02;;;29.40;40.00;;;;;;4974248;28;20234;-76
2021/04/27 09:03:47;;;;;;;12.85;7.55;;;29.00;38.30;;;;;;4972361;28;20282;-76
2021/04/27 09:06:19;;;;;;;16.88;7.95;;;27.40;39.40;;;;;;4973852;28;20218;-76
2021/04/27 09:08:46;;;;;;;14.75;8.27;;;26.80;40.10;;;;;;4974071;28;20184;-76
2021/04/27 09:11:35;;;;;;;17.58;8.60;;;26.60;43.20;;;;;;4973915;28;20189;-76
2021/04/27 09:14:16;;;;;;;19.75;8.45;;;27.30;41.20;;;;;;4970858;28;20316;-76
2021/04/27 09:16:59;;;;;;;17.60;9.07;;;26.30;42.10;;;;;;4971787;28;20203;-76
2021/04/27 09:19:36;;;;;;;17.10;9.18;;;26.80;41.50;;;;;;4968432;28;20198;-76
2021/04/27 09:22:22;;;;;;;14.55;8.25;;;27.00;40.90;;;;;;4984449;28;20187;-76
2021/04/27 09:24:51;;;;;;;16.40;8.10;;;28.00;41.60;;;;;;4982716;28;20171;-76
2021/04/27 09:27:27;;;;;;;16.00;8.25;;;28.60;40.00;;;;;;4981359;28;20666;-76
2021/04/27 09:29:54;;;;;;;19.50;8.80;;;27.40;40.70;;;;;;4990614;28;20185;-75
2021/04/27 09:32:34;;;;;;;17.67;8.60;;;27.90;39.00;;;;;;4986115;28;20219;-76
2021/04/27 09:35:45;;;;;;;15.48;8.20;;;28.10;39.60;;;;;;5002522;28;20230;-75
2021/04/27 09:38:29;;;;;;;17.48;8.60;;;28.10;38.80;;;;;;4972253;28;20662;-75
2021/04/27 09:41:05;;;;;;;15.57;8.77;;;28.60;40.00;;;;;;4971401;28;20270;-76
2021/04/27 09:43:34;;;;;;;16.15;9.20;;;28.60;39.60;;;;;;4996327;28;20549;-76
2021/04/27 09:46:02;;;;;;;19.00;9.13;;;30.60;38.00;;;;;;5002524;28;20278;-77
2021/04/27 09:48:49;;;;;;;18.45;9.05;;;31.20;37.10;;;;;;4971610;28;20191;-76
2021/04/27 09:51:15;;;;;;;16.05;9.00;;;29.40;38.10;;;;;;4970315;28;20646;-76
2021/04/27 09:53:58;;;;;;;18.42;8.32;;;28.60;38.50;;;;;;4972508;28;20322;-76
2021/04/27 09:56:44;;;;;;;18.42;8.23;;;28.70;38.40;;;;;;4970174;28;20301;-76
2021/04/27 09:59:42;;;;;;;14.45;7.70;;;29.70;37.50;;;;;;4985553;28;20230;-75
2021/04/27 10:02:09;;;;;;;14.70;8.68;;;29.20;37.70;;;;;;4953407;28;20548;-76
2021/04/27 10:04:35;;;;;;;17.08;8.85;;;29.50;38.10;;;;;;4972815;28;20183;-76
2021/04/27 10:07:01;;;;;;;16.77;8.60;;;30.80;35.40;;;;;;4984543;28;20248;-77
2021/04/27 10:09:28;;;;;;;12.68;7.95;;;30.90;36.80;;;;;;4971352;28;20198;-77
2021/04/27 10:11:55;;;;;;;14.48;7.90;;;31.80;36.20;;;;;;4971037;28;20206;-76
2021/04/27 10:14:21;;;;;;;12.73;7.22;;;30.40;35.60;;;;;;4970391;28;20641;-76
2021/04/27 10:16:48;;;;;;;12.32;7.93;;;29.50;35.60;;;;;;4970529;28;20596;-76
2021/04/27 10:19:13;;;;;;;10.40;7.20;;;29.50;36.50;;;;;;4969094;28;20214;-76
2021/04/27 10:21:40;;;;;;;12.70;7.88;;;30.80;36.20;;;;;;4970815;28;20650;-76
2021/04/27 10:24:11;;;;;;;13.95;8.27;;;31.10;34.70;;;;;;4970827;28;20226;-76
2021/04/27 10:26:37;;;;;;;12.15;7.40;;;32.10;36.30;;;;;;4969863;28;20195;-76
2021/04/27 10:29:17;;;;;;;15.27;8.13;;;32.30;34.40;;;;;;5002668;28;20194;-77
2021/04/27 10:31:43;;;;;;;11.02;7.43;;;32.90;33.90;;;;;;4969272;28;20194;-77
2021/04/27 10:34:15;;;;;;;14.93;7.93;;;33.70;33.90;;;;;;4970714;28;20657;-77
2021/04/27 10:36:50;;;;;;;12.48;7.68;;;33.30;32.60;;;;;;5000746;28;20218;-77
2021/04/27 10:39:17;;;;;;;11.48;7.70;;;33.50;33.30;;;;;;4969595;28;20193;-77
2021/04/27 10:41:57;;;;;;;12.50;7.60;;;33.30;33.00;;;;;;4969733;28;20187;-77
2021/04/27 10:44:24;;;;;;;10.93;7.18;;;31.00;32.70;;;;;;4998667;28;20213;-76
2021/04/27 10:46:51;;;;;;;15.32;7.80;;;27.50;35.80;;;;;;4970309;28;20179;-76
2021/04/27 10:49:34;;;;;;;14.85;8.13;;;28.10;37.10;;;;;;4969931;28;20262;-76
2021/04/27 10:52:02;;;;;;;13.70;7.82;;;27.60;36.20;;;;;;5001484;28;20179;-76
2021/04/27 10:54:30;;;;;;;11.32;7.90;;;27.30;37.70;;;;;;4969636;28;20186;-76
2021/04/27 10:57:05;;;;;;;11.30;7.32;;;28.20;38.20;;;;;;4970263;28;20218;-78
2021/04/27 10:59:47;;;;;;;9.85;5.20;;;28.30;37.90;;;;;;5001945;28;20214;-76
2021/04/27 11:02:16;;;;;;;9.35;5.32;;;28.80;35.10;;;;;;4969472;28;20704;-76
2021/04/27 11:04:56;;;;;;;9.30;5.80;;;28.80;34.10;;;;;;5002242;28;20633;-76
2021/04/27 11:07:24;;;;;;;11.25;6.50;;;28.20;33.00;;;;;;4969261;28;20202;-76
2021/04/27 11:12:42;;;;;;;10.95;5.97;;;27.60;34.50;;;;;;4987532;28;20249;-76
2021/04/27 11:15:29;;;;;;;8.60;5.30;;;27.90;35.10;;;;;;4969483;28;20221;-76
2021/04/27 11:18:07;;;;;;;10.65;5.10;;;28.80;31.60;;;;;;4969627;28;20235;-76
2021/04/27 11:20:49;;;;;;;7.40;4.63;;;29.20;31.00;;;;;;4970879;28;20187;-76
2021/04/27 11:23:39;;;;;;;8.90;4.60;;;29.80;29.50;;;;;;4969118;28;20582;-76
2021/04/27 11:26:32;;;;;;;7.90;4.20;;;30.00;29.30;;;;;;4968821;28;20201;-76
2021/04/27 11:29:22;;;;;;;7.07;4.53;;;30.80;31.00;;;;;;4999667;28;20598;-76
2021/04/27 11:31:55;;;;;;;10.48;4.60;;;30.90;29.60;;;;;;4970927;28;20195;-76
2021/04/27 11:34:21;;;;;;;11.13;4.90;;;31.50;29.10;;;;;;4969754;28;20222;-78
2021/04/27 11:36:47;;;;;;;10.57;4.65;;;31.80;28.90;;;;;;4971571;28;20210;-76
2021/04/27 11:39:14;;;;;;;7.50;4.78;;;32.40;29.20;;;;;;4969073;28;20302;-76
2021/04/27 11:42:01;;;;;;;9.88;4.95;;;31.40;28.90;;;;;;4969812;28;20215;-75
2021/04/27 11:44:38;;;;;;;9.63;5.25;;;29.00;28.90;;;;;;4971308;28;20233;-76
2021/04/27 11:47:07;;;;;;;7.15;4.72;;;27.40;31.00;;;;;;5000500;28;20199;-76
2021/04/27 11:49:58;;;;;;;8.57;4.80;;;28.80;30.00;;;;;;5001858;28;20179;-76
2021/04/27 11:52:45;;;;;;;8.20;4.40;;;30.30;29.40;;;;;;4968741;28;20195;-76
2021/04/27 11:55:22;;;;;;;8.85;4.97;;;30.50;28.80;;;;;;4969779;28;20183;-75
2021/04/27 11:57:53;;;;;;;15.75;5.60;;;30.20;29.00;;;;;;4970851;28;20287;-76
2021/04/27 12:00:20;;;;;;;9.98;5.80;;;28.30;29.70;;;;;;5004100;28;20187;-75
2021/04/27 12:02:46;;;;;;;9.45;5.55;;;28.10;29.50;;;;;;4972551;28;20229;-76
2021/04/27 12:05:13;;;;;;;9.95;5.32;;;28.00;31.10;;;;;;4973010;28;20274;-76
2021/04/27 12:07:39;;;;;;;9.20;5.50;;;27.80;29.60;;;;;;5004865;28;20175;-76
2021/04/27 12:10:06;;;;;;;11.13;4.80;;;28.20;31.40;;;;;;4972128;28;20207;-75
2021/04/27 12:12:32;;;;;;;7.78;5.18;;;28.50;31.30;;;;;;4973022;28;20241;-76
2021/04/27 12:15:03;;;;;;;8.80;5.28;;;27.90;29.40;;;;;;4973253;28;20234;-76
2021/04/27 12:17:35;;;;;;;11.05;5.93;;;27.00;29.70;;;;;;4970645;28;20650;-75
2021/04/27 12:20:17;;;;;;;7.78;5.30;;;26.40;29.90;;;;;;4972217;28;20644;-76
2021/04/27 12:22:48;;;;;;;9.13;5.25;;;26.70;32.30;;;;;;4987179;28;20193;-76
2021/04/27 12:25:17;;;;;;;10.40;5.40;;;26.20;31.40;;;;;;4971476;28;20179;-76
2021/04/27 12:27:43;;;;;;;10.90;6.20;;;25.80;31.10;;;;;;4969616;28;20195;-76
2021/04/27 12:30:13;;;;;;;11.20;6.10;;;25.30;32.60;;;;;;4971573;28;20254;-76
2021/04/27 12:32:41;;;;;;;11.88;6.30;;;24.00;33.00;;;;;;5003335;28;20184;-76
2021/04/27 12:35:11;;;;;;;12.37;6.60;;;23.60;35.10;;;;;;4969696;28;20261;-76
2021/04/27 12:37:45;;;;;;;9.90;6.33;;;23.30;35.10;;;;;;4972442;28;20234;-76
2021/04/27 12:40:20;;;;;;;13.60;6.00;;;23.10;34.90;;;;;;4972247;28;20225;-77
2021/04/27 12:42:50;;;;;;;8.50;5.80;;;23.10;39.20;;;;;;4972457;28;20560;-76
2021/04/27 12:45:16;;;;;;;9.33;6.00;;;23.00;36.70;;;;;;4972843;28;20274;-76
2021/04/27 12:47:44;;;;;;;12.07;6.40;;;22.60;38.40;;;;;;5003812;28;20682;-76
2021/04/27 12:50:19;;;;;;;10.80;6.17;;;22.30;36.20;;;;;;4971790;28;20297;-76
2021/04/27 12:52:56;;;;;;;12.43;6.40;;;22.10;36.00;;;;;;4971526;28;20182;-76
2021/04/27 12:55:26;;;;;;;10.77;6.47;;;21.90;37.00;;;;;;4987636;28;20313;-78
2021/04/27 12:57:53;;;;;;;13.63;7.13;;;21.80;38.20;;;;;;4971354;28;20217;-77
2021/04/27 13:00:21;;;;;;;10.43;6.67;;;21.80;38.70;;;;;;4971714;28;20218;-75
2021/04/27 13:02:48;;;;;;;10.87;6.77;;;21.50;37.80;;;;;;5003823;28;20185;-75